createdAt,value
2022-10-08T00:00:06.968Z,89.39
2022-10-08T00:01:06.948Z,89.29
2022-10-08T00:02:06.973Z,89.29
2022-10-08T00:03:06.943Z,89.29
2022-10-08T00:04:06.987Z,89.29
2022-10-08T00:05:06.910Z,89.18
2022-10-08T00:06:06.904Z,89.29
2022-10-08T00:07:06.889Z,89.29
2022-10-08T00:08:06.880Z,89.29
2022-10-08T00:09:06.869Z,89.39
2022-10-08T00:10:06.827Z,89.29
2022-10-08T00:11:06.817Z,89.18
2022-10-08T00:12:06.826Z,89.18
2022-10-08T00:13:06.796Z,89.18
2022-10-08T00:14:06.786Z,89.09
2022-10-08T00:15:06.799Z,89.18
2022-10-08T00:16:06.830Z,89.18
2022-10-08T00:17:06.758Z,89.09
2022-10-08T00:18:06.735Z,89.18
2022-10-08T00:19:06.734Z,89.18
2022-10-08T00:20:06.706Z,89.29
2022-10-08T00:21:06.697Z,89.29
2022-10-08T00:22:06.683Z,89.29
2022-10-08T00:23:06.689Z,89.39
2022-10-08T00:24:06.656Z,89.39
2022-10-08T00:25:06.654Z,89.39
2022-10-08T00:26:06.650Z,89.50
2022-10-08T00:27:06.613Z,89.50
2022-10-08T00:28:06.657Z,89.50
2022-10-08T00:29:06.593Z,89.59
2022-10-08T00:30:06.603Z,89.59
2022-10-08T00:31:06.604Z,89.59
2022-10-08T00:32:06.544Z,89.59
2022-10-08T00:33:06.555Z,89.70
2022-10-08T00:34:06.535Z,89.80
2022-10-08T00:35:06.538Z,89.80
2022-10-08T00:36:06.515Z,89.90
2022-10-08T00:37:06.483Z,89.90
2022-10-08T00:38:06.483Z,90.00
2022-10-08T00:39:06.479Z,90.00
2022-10-08T00:40:06.462Z,90.00
2022-10-08T00:41:06.432Z,90.00
2022-10-08T00:42:06.424Z,90.00
2022-10-08T00:43:06.427Z,89.90
2022-10-08T00:44:06.414Z,89.90
2022-10-08T00:45:06.392Z,89.90
2022-10-08T00:46:06.434Z,90.00
2022-10-08T00:47:06.374Z,90.00
2022-10-08T00:48:06.352Z,89.90
2022-10-08T00:49:06.327Z,89.90
2022-10-08T00:50:06.345Z,90.00
2022-10-08T00:51:06.302Z,90.00
2022-10-08T00:52:13.420Z,89.80
2022-10-08T00:53:06.268Z,89.90
2022-10-08T00:54:08.004Z,90.00
2022-10-08T00:55:08.948Z,89.90
2022-10-08T00:56:06.267Z,89.90
2022-10-08T00:57:06.256Z,89.90
2022-10-08T00:58:06.235Z,90.11
2022-10-08T00:59:06.248Z,90.11
2022-10-08T01:00:06.209Z,90.21
2022-10-08T01:01:06.357Z,90.21
2022-10-08T01:02:06.258Z,90.21
2022-10-08T01:03:06.148Z,90.45
2022-10-08T01:04:06.172Z,90.36
2022-10-08T01:05:06.154Z,90.25
2022-10-08T01:06:06.142Z,90.36
2022-10-08T01:07:06.130Z,90.45
2022-10-08T01:08:06.121Z,90.45
2022-10-08T01:09:06.082Z,90.36
2022-10-08T01:10:06.081Z,90.36
2022-10-08T01:11:06.087Z,90.36
2022-10-08T01:12:06.038Z,90.36
2022-10-08T01:13:06.025Z,90.45
2022-10-08T01:14:06.049Z,90.45
2022-10-08T01:15:06.020Z,90.45
2022-10-08T01:16:06.080Z,90.56
2022-10-08T01:17:05.980Z,90.66
2022-10-08T01:18:05.990Z,90.66
2022-10-08T01:19:05.942Z,90.66
2022-10-08T01:20:05.954Z,90.66
2022-10-08T01:21:05.950Z,90.66
2022-10-08T01:22:05.944Z,90.66
2022-10-08T01:23:05.907Z,90.77
2022-10-08T01:24:05.888Z,90.77
2022-10-08T01:25:05.867Z,90.77
2022-10-08T01:26:05.882Z,90.86
2022-10-08T01:27:05.869Z,90.86
2022-10-08T01:28:05.895Z,90.86
2022-10-08T01:29:05.827Z,90.77
2022-10-08T01:30:05.814Z,90.77
2022-10-08T01:31:05.865Z,90.81
2022-10-08T01:32:05.783Z,90.70
2022-10-08T01:33:05.773Z,90.70
2022-10-08T01:34:05.768Z,90.81
2022-10-08T01:35:05.768Z,90.81
2022-10-08T01:36:05.747Z,90.81
2022-10-08T01:37:05.766Z,90.91
2022-10-08T01:38:05.716Z,91.01
2022-10-08T01:39:05.694Z,91.01
2022-10-08T01:40:05.686Z,91.01
2022-10-08T01:41:05.676Z,91.01
2022-10-08T01:42:05.687Z,91.11
2022-10-08T01:43:05.675Z,91.11
2022-10-08T01:44:05.619Z,91.11
2022-10-08T01:45:05.625Z,91.11
2022-10-08T01:46:05.729Z,91.22
2022-10-08T01:47:05.602Z,91.22
2022-10-08T01:48:05.614Z,91.22
2022-10-08T01:49:05.560Z,91.22
2022-10-08T01:50:05.548Z,91.22
2022-10-08T01:51:05.546Z,91.22
2022-10-08T01:52:05.534Z,91.22
2022-10-08T01:53:05.533Z,91.22
2022-10-08T01:54:05.494Z,91.22
2022-10-08T01:55:05.490Z,91.11
2022-10-08T01:56:05.484Z,91.01
2022-10-08T01:57:05.461Z,91.11
2022-10-08T01:58:05.473Z,91.11
2022-10-08T01:59:05.435Z,91.11
2022-10-08T02:00:05.422Z,91.11
2022-10-08T02:01:05.512Z,91.11
2022-10-08T02:02:05.446Z,91.31
2022-10-08T02:03:05.390Z,91.22
2022-10-08T02:04:05.377Z,91.22
2022-10-08T02:05:05.358Z,91.22
2022-10-08T02:06:05.362Z,91.31
2022-10-08T02:07:05.337Z,91.31
2022-10-08T02:08:05.331Z,91.31
2022-10-08T02:09:05.319Z,91.31
2022-10-08T02:10:05.305Z,91.31
2022-10-08T02:11:05.277Z,91.31
2022-10-08T02:12:05.270Z,91.42
2022-10-08T02:13:05.280Z,91.42
2022-10-08T02:14:05.249Z,91.52
2022-10-08T02:15:05.249Z,91.52
2022-10-08T02:16:05.272Z,91.52
2022-10-08T02:17:05.218Z,91.63
2022-10-08T02:18:05.223Z,91.73
2022-10-08T02:19:05.177Z,91.73
2022-10-08T02:20:05.194Z,91.83
2022-10-08T02:21:05.180Z,91.73
2022-10-08T02:22:05.127Z,91.73
2022-10-08T02:23:05.143Z,91.69
2022-10-08T02:24:05.107Z,91.69
2022-10-08T02:25:05.115Z,91.63
2022-10-08T02:26:05.101Z,91.48
2022-10-08T02:27:05.072Z,91.48
2022-10-08T02:28:05.093Z,91.48
2022-10-08T02:29:05.060Z,91.48
2022-10-08T02:30:05.042Z,91.48
2022-10-08T02:31:05.046Z,91.38
2022-10-08T02:32:05.036Z,91.17
2022-10-08T02:33:05.020Z,91.17
2022-10-08T02:34:05.015Z,91.17
2022-10-08T02:35:04.974Z,91.27
2022-10-08T02:36:04.951Z,91.27
2022-10-08T02:37:04.951Z,91.27
2022-10-08T02:38:04.934Z,91.27
2022-10-08T02:39:04.927Z,91.38
2022-10-08T02:40:04.932Z,91.38
2022-10-08T02:41:04.884Z,91.38
2022-10-08T02:42:04.894Z,91.27
2022-10-08T02:43:04.863Z,91.38
2022-10-08T02:44:04.874Z,91.42
2022-10-08T02:45:04.870Z,91.38
2022-10-08T02:46:04.860Z,91.27
2022-10-08T02:47:04.820Z,91.38
2022-10-08T02:48:04.817Z,91.38
2022-10-08T02:49:04.784Z,91.38
2022-10-08T02:50:04.783Z,91.48
2022-10-08T02:51:04.764Z,91.63
2022-10-08T02:52:04.752Z,91.73
2022-10-08T02:53:04.739Z,91.73
2022-10-08T02:54:04.734Z,91.73
2022-10-08T02:55:04.711Z,91.73
2022-10-08T02:56:04.732Z,91.83
2022-10-08T02:57:09.164Z,91.83
2022-10-08T02:58:04.682Z,91.83
2022-10-08T02:59:04.671Z,91.93
2022-10-08T03:00:04.670Z,92.03
2022-10-08T03:01:04.709Z,91.83
2022-10-08T03:02:04.714Z,91.93
2022-10-08T03:03:04.626Z,91.93
2022-10-08T03:04:04.603Z,91.93
2022-10-08T03:05:04.602Z,91.93
2022-10-08T03:06:04.615Z,92.03
2022-10-08T03:07:04.572Z,92.03
2022-10-08T03:08:04.549Z,92.03
2022-10-08T03:09:04.529Z,92.14
2022-10-08T03:10:04.534Z,92.24
2022-10-08T03:11:04.519Z,92.24
2022-10-08T03:12:04.503Z,92.34
2022-10-08T03:13:04.479Z,92.44
2022-10-08T03:14:04.480Z,92.44
2022-10-08T03:15:04.470Z,92.44
2022-10-08T03:16:04.470Z,92.44
2022-10-08T03:17:04.517Z,92.44
2022-10-08T03:18:04.431Z,92.44
2022-10-08T03:19:04.410Z,92.55
2022-10-08T03:20:04.387Z,92.44
2022-10-08T03:21:04.413Z,92.44
2022-10-08T03:22:04.360Z,92.55
2022-10-08T03:23:04.371Z,92.65
2022-10-08T03:24:04.340Z,92.75
2022-10-08T03:25:04.327Z,92.65
2022-10-08T03:26:04.326Z,92.71
2022-10-08T03:27:04.307Z,92.81
2022-10-08T03:28:04.341Z,92.81
2022-10-08T03:29:04.312Z,92.71
2022-10-08T03:30:04.257Z,92.71
2022-10-08T03:31:04.304Z,92.71
2022-10-08T03:32:04.246Z,92.71
2022-10-08T03:33:04.216Z,92.60
2022-10-08T03:34:04.224Z,92.60
2022-10-08T03:35:04.196Z,92.50
2022-10-08T03:36:04.226Z,92.50
2022-10-08T03:37:04.175Z,92.50
2022-10-08T03:38:04.179Z,92.36
2022-10-08T03:39:04.146Z,92.46
2022-10-08T03:40:04.135Z,92.36
2022-10-08T03:41:04.125Z,92.36
2022-10-08T03:42:04.123Z,92.36
2022-10-08T03:43:04.118Z,92.36
2022-10-08T03:44:04.084Z,92.25
2022-10-08T03:45:04.077Z,92.25
2022-10-08T03:46:04.126Z,92.25
2022-10-08T03:47:04.055Z,92.25
2022-10-08T03:48:04.057Z,92.25
2022-10-08T03:49:04.023Z,92.25
2022-10-08T03:50:04.028Z,92.25
2022-10-08T03:51:04.001Z,92.25
2022-10-08T03:52:03.998Z,92.25
2022-10-08T03:53:03.965Z,92.25
2022-10-08T03:54:03.957Z,92.15
2022-10-08T03:55:03.941Z,92.15
2022-10-08T03:56:03.949Z,92.15
2022-10-08T03:57:03.945Z,92.15
2022-10-08T03:58:03.938Z,92.11
2022-10-08T03:59:03.892Z,92.11
2022-10-08T04:00:03.886Z,92.21
2022-10-08T04:01:03.994Z,92.32
2022-10-08T04:02:03.864Z,92.21
2022-10-08T04:03:03.926Z,92.32
2022-10-08T04:04:03.845Z,92.32
2022-10-08T04:05:03.839Z,92.32
2022-10-08T04:06:03.795Z,92.32
2022-10-08T04:07:03.802Z,92.32
2022-10-08T04:08:03.794Z,92.32
2022-10-08T04:09:03.784Z,92.21
2022-10-08T04:10:03.773Z,92.32
2022-10-08T04:11:03.752Z,92.32
2022-10-08T04:12:03.719Z,92.27
2022-10-08T04:13:03.736Z,92.11
2022-10-08T04:14:03.695Z,92.01
2022-10-08T04:15:03.701Z,92.01
2022-10-08T04:16:03.758Z,92.07
2022-10-08T04:17:03.687Z,92.27
2022-10-08T04:18:03.673Z,92.37
2022-10-08T04:19:03.649Z,92.58
2022-10-08T04:20:03.616Z,92.68
2022-10-08T04:21:03.607Z,92.68
2022-10-08T04:22:03.604Z,92.88
2022-10-08T04:23:03.603Z,93.09
2022-10-08T04:24:03.589Z,93.19
2022-10-08T04:25:03.562Z,93.19
2022-10-08T04:26:03.538Z,93.29
2022-10-08T04:27:03.563Z,93.60
2022-10-08T04:28:03.613Z,93.80
2022-10-08T04:29:03.518Z,93.91
2022-10-08T04:30:03.502Z,94.11
2022-10-08T04:31:03.504Z,94.21
2022-10-08T04:32:03.485Z,94.32
2022-10-08T04:33:03.469Z,94.42
2022-10-08T04:34:03.447Z,94.62
2022-10-08T04:35:03.451Z,94.82
2022-10-08T04:36:03.429Z,94.93
2022-10-08T04:37:03.431Z,95.03
2022-10-08T04:38:03.401Z,95.13
2022-10-08T04:39:03.408Z,95.34
2022-10-08T04:40:03.357Z,95.44
2022-10-08T04:41:03.373Z,95.59
2022-10-08T04:42:03.348Z,95.75
2022-10-08T04:43:03.325Z,95.95
2022-10-08T04:44:03.354Z,96.05
2022-10-08T04:45:03.341Z,96.15
2022-10-08T04:46:03.321Z,96.36
2022-10-08T04:47:03.275Z,96.46
2022-10-08T04:48:03.290Z,96.56
2022-10-08T04:49:03.261Z,96.81
2022-10-08T04:50:03.226Z,96.81
2022-10-08T04:51:06.894Z,96.81
2022-10-08T04:52:04.217Z,96.92
2022-10-08T04:53:03.209Z,96.92
2022-10-08T04:54:03.227Z,97.02
2022-10-08T04:55:03.188Z,97.12
2022-10-08T04:56:03.154Z,97.12
2022-10-08T04:57:03.165Z,97.22
2022-10-08T04:58:03.145Z,97.33
2022-10-08T04:59:03.154Z,97.33
2022-10-08T05:00:18.071Z,97.42
2022-10-08T05:01:04.126Z,97.38
2022-10-08T05:02:03.151Z,97.49
2022-10-08T05:03:03.141Z,97.58
2022-10-08T05:04:03.104Z,97.69
2022-10-08T05:05:03.036Z,97.69
2022-10-08T05:06:03.035Z,97.79
2022-10-08T05:07:03.039Z,97.89
2022-10-08T05:08:03.016Z,97.89
2022-10-08T05:09:02.993Z,97.99
2022-10-08T05:10:03.015Z,98.10
2022-10-08T05:11:02.997Z,98.10
2022-10-08T05:12:02.944Z,98.20
2022-10-08T05:13:02.933Z,98.30
2022-10-08T05:14:02.947Z,98.40
2022-10-08T05:15:02.930Z,98.50
2022-10-08T05:16:03.053Z,98.61
2022-10-08T05:17:02.893Z,98.71
2022-10-08T05:18:02.890Z,98.81
2022-10-08T05:19:02.862Z,98.91
2022-10-08T05:20:02.871Z,99.02
2022-10-08T05:21:02.877Z,99.02
2022-10-08T05:22:02.846Z,99.02
2022-10-08T05:23:02.822Z,99.07
2022-10-08T05:24:02.827Z,99.18
2022-10-08T05:25:02.811Z,99.27
2022-10-08T05:26:02.784Z,99.38
2022-10-08T05:27:02.787Z,99.48
2022-10-08T05:28:02.854Z,99.48
2022-10-08T05:29:02.750Z,99.58
2022-10-08T05:30:02.746Z,99.68
2022-10-08T05:31:02.767Z,99.68
2022-10-08T05:32:02.704Z,99.68
2022-10-08T05:33:02.677Z,99.68
2022-10-08T05:34:02.684Z,99.68
2022-10-08T05:35:02.680Z,99.68
2022-10-08T05:36:02.639Z,99.68
2022-10-08T05:37:02.649Z,99.79
2022-10-08T05:38:02.643Z,99.79
2022-10-08T05:39:02.623Z,99.79
2022-10-08T05:40:02.616Z,99.79
2022-10-08T05:41:02.589Z,99.79
2022-10-08T05:42:02.572Z,99.79
2022-10-08T05:43:02.569Z,99.79
2022-10-08T05:44:02.551Z,99.79
2022-10-08T05:45:02.539Z,99.79
2022-10-08T05:46:02.637Z,99.79
2022-10-08T05:47:02.518Z,99.89
2022-10-08T05:48:02.511Z,99.89
2022-10-08T05:49:02.490Z,99.89
2022-10-08T05:50:02.470Z,99.99
2022-10-08T05:51:02.474Z,99.99
2022-10-08T05:52:02.466Z,99.99
2022-10-08T05:53:05.328Z,99.99
2022-10-08T05:54:03.457Z,99.99
2022-10-08T05:55:02.401Z,99.99
2022-10-08T05:56:02.388Z,99.89
2022-10-08T05:57:02.383Z,99.89
2022-10-08T05:58:02.396Z,99.84
2022-10-08T05:59:02.354Z,99.73
2022-10-08T06:00:02.348Z,99.73
2022-10-08T06:01:02.339Z,99.73
2022-10-08T06:02:02.318Z,99.73
2022-10-08T06:03:02.336Z,99.73
2022-10-08T06:04:08.071Z,99.73
2022-10-08T06:05:03.368Z,99.73
2022-10-08T06:06:02.256Z,99.73
2022-10-08T06:07:02.267Z,99.84
2022-10-08T06:08:02.245Z,99.84
2022-10-08T06:09:02.228Z,99.84
2022-10-08T06:10:02.206Z,99.84
2022-10-08T06:11:02.185Z,99.89
2022-10-08T06:12:02.218Z,99.84
2022-10-08T06:13:02.165Z,99.79
2022-10-08T06:14:02.165Z,99.84
2022-10-08T06:15:02.169Z,99.84
2022-10-08T06:16:02.184Z,99.89
2022-10-08T06:17:02.147Z,99.89
2022-10-08T06:18:02.127Z,99.89
2022-10-08T06:19:02.102Z,99.89
2022-10-08T06:20:02.082Z,99.89
2022-10-08T06:21:02.069Z,99.89
2022-10-08T06:22:02.082Z,99.89
2022-10-08T06:23:02.046Z,99.89
2022-10-08T06:24:02.029Z,99.89
2022-10-08T06:25:02.029Z,99.99
2022-10-08T06:26:02.004Z,99.99
2022-10-08T06:27:01.999Z,99.99
2022-10-08T06:28:02.036Z,99.99
2022-10-08T06:29:01.974Z,99.99
2022-10-08T06:30:01.948Z,99.99
2022-10-08T06:31:01.962Z,99.99
2022-10-08T06:32:01.944Z,99.99
2022-10-08T06:33:01.950Z,99.99
2022-10-08T06:34:01.917Z,99.99
2022-10-08T06:35:01.895Z,99.99
2022-10-08T06:36:01.871Z,99.99
2022-10-08T06:37:01.863Z,99.99
2022-10-08T06:38:01.881Z,99.99
2022-10-08T06:39:01.844Z,99.99
2022-10-08T06:40:01.875Z,99.99
2022-10-08T06:41:01.800Z,99.99
2022-10-08T06:42:02.519Z,99.99
2022-10-08T06:43:01.891Z,99.99
2022-10-08T06:44:01.854Z,99.99
2022-10-08T06:45:02.576Z,99.99
2022-10-08T06:46:01.752Z,99.99
2022-10-08T06:47:01.787Z,99.99
2022-10-08T06:48:01.709Z,99.99
2022-10-08T06:49:01.950Z,99.99
2022-10-08T06:50:01.696Z,99.99
2022-10-08T06:51:01.682Z,99.99
2022-10-08T06:52:01.672Z,99.99
2022-10-08T06:54:07.867Z,99.99
2022-10-08T06:55:04.878Z,99.99
2022-10-08T06:56:04.054Z,99.99
2022-10-08T06:57:04.003Z,99.99
2022-10-08T06:58:04.014Z,99.99
2022-10-08T06:59:04.011Z,99.99
2022-10-08T07:00:03.961Z,99.99
2022-10-08T07:01:04.028Z,99.99
2022-10-08T07:02:04.044Z,99.99
2022-10-08T07:03:03.930Z,99.99
2022-10-08T07:04:03.932Z,99.99
2022-10-08T07:05:03.932Z,99.99
2022-10-08T07:06:03.961Z,99.99
2022-10-08T07:07:03.870Z,99.99
2022-10-08T07:08:03.892Z,99.99
2022-10-08T07:09:03.854Z,99.99
2022-10-08T07:10:03.855Z,99.99
2022-10-08T07:11:03.819Z,99.99
2022-10-08T07:12:03.810Z,99.99
2022-10-08T07:13:03.794Z,99.99
2022-10-08T07:14:03.805Z,99.99
2022-10-08T07:15:03.790Z,99.99
2022-10-08T07:16:03.845Z,99.99
2022-10-08T07:17:03.739Z,99.99
2022-10-08T07:18:03.791Z,99.99
2022-10-08T07:19:03.722Z,99.99
2022-10-08T07:20:03.720Z,99.99
2022-10-08T07:21:03.722Z,99.99
2022-10-08T07:22:03.691Z,99.99
2022-10-08T07:23:03.660Z,99.99
2022-10-08T07:24:03.657Z,99.99
2022-10-08T07:25:03.649Z,99.99
2022-10-08T07:26:03.639Z,99.99
2022-10-08T07:27:03.644Z,99.99
2022-10-08T07:28:03.687Z,99.99
2022-10-08T07:29:03.601Z,99.99
2022-10-08T07:30:07.582Z,99.99
2022-10-08T07:31:03.696Z,99.99
2022-10-08T07:32:03.576Z,99.99
2022-10-08T07:33:03.536Z,99.99
2022-10-08T07:34:03.521Z,99.99
2022-10-08T07:35:03.544Z,99.99
2022-10-08T07:36:03.507Z,99.99
2022-10-08T07:37:03.507Z,99.99
2022-10-08T07:38:04.480Z,99.99
2022-10-08T07:39:03.459Z,99.99
2022-10-08T07:40:03.448Z,99.99
2022-10-08T07:41:03.429Z,99.99
2022-10-08T07:42:03.435Z,99.99
2022-10-08T07:43:03.408Z,99.99
2022-10-08T07:44:03.398Z,99.99
2022-10-08T07:45:03.375Z,99.99
2022-10-08T07:46:03.439Z,99.99
2022-10-08T07:47:03.376Z,99.99
2022-10-08T07:48:03.342Z,99.99
2022-10-08T07:49:03.328Z,99.99
2022-10-08T07:50:03.321Z,99.99
2022-10-08T07:51:03.286Z,99.99
2022-10-08T07:52:03.296Z,99.99
2022-10-08T07:53:03.265Z,99.99
2022-10-08T07:54:03.276Z,99.99
2022-10-08T07:55:03.243Z,99.99
2022-10-08T07:56:03.237Z,99.99
2022-10-08T07:57:03.243Z,99.99
2022-10-08T07:58:03.204Z,99.99
2022-10-08T07:59:03.181Z,99.99
2022-10-08T08:00:03.241Z,99.99
2022-10-08T08:01:03.262Z,99.99
2022-10-08T08:02:03.239Z,99.99
2022-10-08T08:03:03.144Z,99.99
2022-10-08T08:04:03.149Z,99.99
2022-10-08T08:05:03.121Z,99.99
2022-10-08T08:06:03.105Z,99.99
2022-10-08T08:07:03.096Z,99.99
2022-10-08T08:08:03.080Z,99.99
2022-10-08T08:09:03.075Z,99.99
2022-10-08T08:10:03.041Z,99.99
2022-10-08T08:11:03.043Z,99.99
2022-10-08T08:12:03.058Z,99.99
2022-10-08T08:13:02.999Z,99.99
2022-10-08T08:14:03.005Z,99.99
2022-10-08T08:15:02.995Z,99.99
2022-10-08T08:16:03.046Z,99.99
2022-10-08T08:17:02.965Z,99.99
2022-10-08T08:18:02.996Z,99.99
2022-10-08T08:19:02.950Z,99.99
2022-10-08T08:20:02.914Z,99.99
2022-10-08T08:21:02.900Z,99.99
2022-10-08T08:22:02.900Z,99.99
2022-10-08T08:23:02.897Z,99.66
2022-10-08T08:24:02.865Z,99.46
2022-10-08T08:25:02.871Z,99.16
2022-10-08T08:26:02.844Z,99.16
2022-10-08T08:27:02.818Z,98.95
2022-10-08T08:28:02.889Z,98.85
2022-10-08T08:29:02.832Z,98.70
2022-10-08T08:30:02.795Z,98.70
2022-10-08T08:31:02.783Z,98.60
2022-10-08T08:32:02.871Z,98.50
2022-10-08T08:33:02.742Z,98.25
2022-10-08T08:34:02.754Z,97.94
2022-10-08T08:35:02.709Z,97.53
2022-10-08T08:36:02.699Z,97.03
2022-10-08T08:37:02.703Z,96.72
2022-10-08T08:38:02.681Z,96.62
2022-10-08T08:39:02.683Z,96.17
2022-10-08T08:40:02.661Z,95.36
2022-10-08T08:41:02.653Z,94.85
2022-10-08T08:42:02.650Z,94.54
2022-10-08T08:43:02.631Z,94.85
2022-10-08T08:44:02.630Z,94.34
2022-10-08T08:45:02.591Z,94.24
2022-10-08T08:46:02.668Z,93.73
2022-10-08T08:47:02.577Z,93.32
2022-10-08T08:48:02.554Z,93.12
2022-10-08T08:49:02.541Z,93.32
2022-10-08T08:50:02.536Z,92.91
2022-10-08T08:51:02.558Z,92.91
2022-10-08T08:52:02.516Z,93.22
2022-10-08T08:53:02.481Z,93.22
2022-10-08T08:54:02.476Z,93.52
2022-10-08T08:55:02.483Z,93.22
2022-10-08T08:56:02.449Z,92.61
2022-10-08T08:57:02.436Z,92.51
2022-10-08T08:58:03.004Z,92.91
2022-10-08T08:59:02.405Z,93.22
2022-10-08T09:00:02.420Z,92.47
2022-10-08T09:01:02.413Z,92.06
2022-10-08T09:02:02.379Z,91.86
2022-10-08T09:03:02.356Z,91.86
2022-10-08T09:04:02.346Z,91.55
2022-10-08T09:05:02.427Z,91.41
2022-10-08T09:06:02.324Z,91.41
2022-10-08T09:07:02.301Z,90.49
2022-10-08T09:08:02.300Z,89.98
2022-10-08T09:09:02.287Z,89.98
2022-10-08T09:10:02.255Z,90.55
2022-10-08T09:11:02.262Z,90.66
2022-10-08T09:12:02.252Z,90.45
2022-10-08T09:13:02.225Z,90.45
2022-10-08T09:14:02.211Z,90.05
2022-10-08T09:15:02.184Z,90.09
2022-10-08T09:16:02.193Z,89.68
2022-10-08T09:17:02.287Z,89.58
2022-10-08T09:18:02.178Z,89.07
2022-10-08T09:19:02.154Z,88.67
2022-10-08T09:20:02.124Z,89.28
2022-10-08T09:21:02.123Z,89.62
2022-10-08T09:22:02.131Z,89.01
2022-10-08T09:23:02.092Z,88.91
2022-10-08T09:24:02.083Z,88.60
2022-10-08T09:25:02.073Z,88.50
2022-10-08T09:26:02.092Z,88.60
2022-10-08T09:27:02.057Z,88.40
2022-10-08T09:28:02.073Z,88.40
2022-10-08T09:29:02.023Z,88.50
2022-10-08T09:30:02.024Z,88.91
2022-10-08T09:31:06.693Z,88.81
2022-10-08T09:32:02.976Z,88.91
2022-10-08T09:33:01.966Z,89.01
2022-10-08T09:34:01.952Z,88.97
2022-10-08T09:35:01.921Z,88.76
2022-10-08T09:36:01.945Z,89.17
2022-10-08T09:37:01.922Z,88.12
2022-10-08T09:38:05.586Z,88.82
2022-10-08T09:39:01.880Z,88.32
2022-10-08T09:40:01.877Z,87.87
2022-10-08T09:41:01.878Z,88.48
2022-10-08T09:42:01.842Z,88.23
2022-10-08T09:43:01.822Z,86.71
2022-10-08T09:44:01.829Z,85.70
2022-10-08T09:45:01.800Z,85.80
2022-10-08T09:46:01.847Z,84.99
2022-10-08T09:47:01.813Z,84.18
2022-10-08T09:48:01.779Z,85.76
2022-10-08T09:49:01.749Z,85.66
2022-10-08T09:50:01.750Z,84.75
2022-10-08T09:51:01.729Z,84.14
2022-10-08T09:52:01.720Z,85.15
2022-10-08T09:53:01.712Z,84.85
2022-10-08T09:54:01.700Z,85.01
2022-10-08T09:55:01.668Z,84.70
2022-10-08T09:56:01.669Z,82.89
2022-10-08T09:57:01.658Z,82.07
2022-10-08T09:58:01.630Z,81.37
2022-10-08T09:59:01.627Z,81.91
2022-10-08T10:00:01.642Z,82.72
2022-10-08T10:01:01.650Z,82.52
2022-10-08T10:02:01.620Z,83.73
2022-10-08T10:03:01.687Z,83.59
2022-10-08T10:04:01.654Z,82.89
2022-10-08T10:05:01.538Z,83.18
2022-10-08T10:06:01.571Z,84.10
2022-10-08T10:07:01.532Z,85.11
2022-10-08T10:08:01.507Z,80.69
2022-10-08T10:09:01.529Z,81.60
2022-10-08T10:10:01.497Z,80.19
2022-10-08T10:11:01.471Z,79.88
2022-10-08T10:12:01.456Z,80.02
2022-10-08T10:13:01.460Z,80.63
2022-10-08T10:14:01.417Z,81.24
2022-10-08T10:15:01.416Z,80.63
2022-10-08T10:16:01.409Z,80.87
2022-10-08T10:17:01.467Z,81.27
2022-10-08T10:18:01.402Z,81.27
2022-10-08T10:19:01.372Z,81.99
2022-10-08T10:20:01.380Z,82.29
2022-10-08T10:21:01.359Z,82.53
2022-10-08T10:22:01.350Z,82.94
2022-10-08T10:23:01.307Z,83.24
2022-10-08T10:24:01.332Z,83.95
2022-10-08T10:25:01.305Z,84.77
2022-10-08T10:26:06.229Z,83.24
2022-10-08T10:27:02.273Z,82.64
2022-10-08T10:28:01.294Z,82.73
2022-10-08T10:29:01.225Z,83.45
2022-10-08T10:30:01.227Z,82.94
2022-10-08T10:31:01.252Z,83.04
2022-10-08T10:32:01.194Z,82.43
2022-10-08T10:33:01.197Z,81.82
2022-10-08T10:34:01.162Z,81.72
2022-10-08T10:35:01.491Z,81.21
2022-10-08T10:36:01.132Z,81.11
2022-10-08T10:37:01.136Z,80.60
2022-10-08T10:38:01.147Z,79.69
2022-10-08T10:39:01.108Z,79.65
2022-10-08T10:40:01.088Z,79.14
2022-10-08T10:41:01.077Z,79.85
2022-10-08T10:42:01.066Z,79.14
2022-10-08T10:43:01.077Z,80.16
2022-10-08T10:44:01.030Z,79.11
2022-10-08T10:45:01.026Z,77.79
2022-10-08T10:46:01.022Z,78.09
2022-10-08T10:47:01.008Z,78.30
2022-10-08T10:48:01.006Z,78.16
2022-10-08T10:49:00.982Z,77.04
2022-10-08T10:50:00.972Z,76.54
2022-10-08T10:51:00.958Z,76.23
2022-10-08T10:52:00.935Z,77.11
2022-10-08T10:53:00.927Z,76.40
2022-10-08T10:54:00.927Z,77.11
2022-10-08T10:55:00.894Z,76.70
2022-10-08T10:56:00.892Z,75.38
2022-10-08T10:57:00.887Z,75.18
2022-10-08T10:58:00.842Z,75.49
2022-10-08T10:59:00.842Z,76.20
2022-10-08T11:00:00.834Z,77.28
2022-10-08T11:01:00.802Z,77.07
2022-10-08T11:02:00.839Z,76.67
2022-10-08T11:03:00.839Z,75.85
2022-10-08T11:04:00.772Z,76.16
2022-10-08T11:05:01.951Z,76.06
2022-10-08T11:06:00.755Z,75.96
2022-10-08T11:07:00.748Z,77.07
2022-10-08T11:08:00.722Z,77.61
2022-10-08T11:09:00.701Z,76.20
2022-10-08T11:10:00.700Z,76.80
2022-10-08T11:11:00.671Z,76.60
2022-10-08T11:12:00.674Z,76.60
2022-10-08T11:13:00.651Z,77.01
2022-10-08T11:14:00.643Z,77.21
2022-10-08T11:15:00.655Z,76.90
2022-10-08T11:16:00.712Z,76.94
2022-10-08T11:17:00.613Z,76.74
2022-10-08T11:18:00.602Z,77.04
2022-10-08T11:19:00.650Z,77.45
2022-10-08T11:20:00.626Z,77.55
2022-10-08T11:21:00.554Z,78.06
2022-10-08T11:22:00.578Z,78.66
2022-10-08T11:23:00.530Z,78.66
2022-10-08T11:24:00.512Z,78.66
2022-10-08T11:25:00.510Z,78.30
2022-10-08T11:26:21.491Z,78.70
2022-10-08T11:27:01.489Z,79.38
2022-10-08T11:28:00.606Z,79.27
2022-10-08T11:29:00.482Z,79.58
2022-10-08T11:30:00.433Z,78.26
2022-10-08T11:31:00.515Z,78.77
2022-10-08T11:32:00.389Z,79.07
2022-10-08T11:33:00.399Z,78.87
2022-10-08T11:34:00.370Z,78.77
2022-10-08T11:35:00.357Z,77.14
2022-10-08T11:36:00.357Z,75.01
2022-10-08T11:37:00.327Z,73.60
2022-10-08T11:38:00.336Z,72.48
2022-10-08T11:39:00.316Z,73.49
2022-10-08T11:40:00.301Z,72.48
2022-10-08T11:41:00.331Z,71.57
2022-10-08T11:42:00.272Z,71.73
2022-10-08T11:43:00.269Z,71.33
2022-10-08T11:44:00.268Z,71.53
2022-10-08T11:45:00.241Z,72.24
2022-10-08T11:46:00.301Z,72.14
2022-10-08T11:47:00.196Z,72.01
2022-10-08T11:48:00.198Z,72.31
2022-10-08T11:49:00.180Z,72.34
2022-10-08T11:50:00.185Z,71.53
2022-10-08T11:51:00.165Z,72.45
2022-10-08T11:52:00.244Z,71.53
2022-10-08T11:53:00.132Z,71.64
2022-10-08T11:54:00.119Z,70.01
2022-10-08T11:55:00.104Z,67.68
2022-10-08T11:56:00.110Z,67.38
2022-10-08T11:57:00.093Z,68.49
2022-10-08T11:58:08.825Z,67.38
2022-10-08T11:59:01.048Z,67.79
2022-10-08T12:00:04.213Z,68.40
2022-10-08T12:01:01.029Z,68.70
2022-10-08T12:02:00.024Z,68.77
2022-10-08T12:03:00.162Z,68.26
2022-10-08T12:03:59.993Z,67.25
2022-10-08T12:05:00.005Z,67.35
2022-10-08T12:05:59.945Z,67.68
2022-10-08T12:06:59.937Z,66.88
2022-10-08T12:07:59.964Z,68.60
2022-10-08T12:08:59.923Z,68.19
2022-10-08T12:09:59.895Z,68.56
2022-10-08T12:10:59.884Z,69.68
2022-10-08T12:11:59.865Z,68.16
2022-10-08T12:12:59.881Z,68.77
2022-10-08T12:13:59.857Z,67.35
2022-10-08T12:14:59.839Z,67.25
2022-10-08T12:15:59.893Z,67.85
2022-10-08T12:16:59.845Z,68.16
2022-10-08T12:17:59.841Z,68.16
2022-10-08T12:18:59.783Z,69.57
2022-10-08T12:19:59.807Z,69.48
2022-10-08T12:20:59.760Z,68.77
2022-10-08T12:21:59.733Z,69.98
2022-10-08T12:22:59.779Z,69.68
2022-10-08T12:23:59.753Z,69.48
2022-10-08T12:24:59.715Z,69.57
2022-10-08T12:25:59.700Z,67.76
2022-10-08T12:26:59.686Z,66.94
2022-10-08T12:27:59.656Z,66.71
2022-10-08T12:28:59.704Z,66.33
2022-10-08T12:29:59.648Z,65.22
2022-10-08T12:30:59.655Z,64.82
2022-10-08T12:31:59.609Z,63.60
2022-10-08T12:32:59.589Z,62.69
2022-10-08T12:33:59.606Z,61.78
2022-10-08T12:34:59.574Z,62.79
2022-10-08T12:35:59.551Z,62.79
2022-10-08T12:36:59.540Z,64.11
2022-10-08T12:37:59.521Z,62.89
2022-10-08T12:39:00.530Z,63.90
2022-10-08T12:39:59.523Z,63.90
2022-10-08T12:40:59.488Z,64.31
2022-10-08T12:41:59.491Z,64.41
2022-10-08T12:42:59.474Z,65.32
2022-10-08T12:43:59.461Z,65.22
2022-10-08T12:44:59.454Z,65.32
2022-10-08T12:45:59.442Z,64.82
2022-10-08T12:46:59.475Z,65.42
2022-10-08T12:47:59.411Z,65.70
2022-10-08T12:48:59.378Z,66.00
2022-10-08T12:49:59.377Z,66.50
2022-10-08T12:50:59.372Z,66.81
2022-10-08T12:51:59.351Z,66.61
2022-10-08T12:52:59.372Z,66.91